createdAt,value
2023-01-15T00:02:08.707Z,3.29
2023-01-15T00:04:37.057Z,3.41
2023-01-15T00:07:05.122Z,3.95
2023-01-15T00:09:33.168Z,3.67
2023-01-15T00:12:02.442Z,4.16
2023-01-15T00:14:30.656Z,3.46
2023-01-15T00:16:58.782Z,3.70
2023-01-15T00:19:27.162Z,2.82
2023-01-15T00:21:55.262Z,3.32
2023-01-15T00:24:42.093Z,3.89
2023-01-15T00:27:43.693Z,3.57
2023-01-15T00:30:14.025Z,3.01
2023-01-15T00:32:43.534Z,3.50
2023-01-15T00:35:16.394Z,3.60
2023-01-15T00:37:44.938Z,3.32
2023-01-15T00:40:14.158Z,3.05
2023-01-15T00:42:42.168Z,3.44
2023-01-15T00:45:13.119Z,3.33
2023-01-15T00:47:43.325Z,3.50
2023-01-15T00:50:15.737Z,3.36
2023-01-15T00:52:44.459Z,3.57
2023-01-15T00:55:12.319Z,3.39
2023-01-15T00:57:40.660Z,4.03
2023-01-15T01:00:09.797Z,3.86
2023-01-15T01:02:37.701Z,3.73
2023-01-15T01:05:06.091Z,3.23
2023-01-15T01:07:34.482Z,3.57
2023-01-15T01:10:02.636Z,3.74
2023-01-15T01:12:30.736Z,3.17
2023-01-15T01:14:59.044Z,3.33
2023-01-15T01:17:27.112Z,3.37
2023-01-15T01:19:55.092Z,3.51
2023-01-15T01:22:23.486Z,3.30
2023-01-15T01:24:51.355Z,3.33
2023-01-15T01:27:19.650Z,3.71
2023-01-15T01:29:47.994Z,3.17
2023-01-15T01:32:15.907Z,3.13
2023-01-15T01:34:43.906Z,3.33
2023-01-15T01:37:12.344Z,3.14
2023-01-15T01:39:40.843Z,2.46
2023-01-15T01:42:17.325Z,2.69
2023-01-15T01:44:46.221Z,2.96
2023-01-15T01:47:23.159Z,2.82
2023-01-15T01:49:58.091Z,3.06
2023-01-15T01:52:30.682Z,2.90
2023-01-15T01:54:59.272Z,3.49
2023-01-15T01:57:27.374Z,2.87
2023-01-15T01:59:56.083Z,3.04
2023-01-15T02:02:24.605Z,2.54
2023-01-15T02:04:53.225Z,2.45
2023-01-15T02:07:21.206Z,2.36
2023-01-15T02:09:49.732Z,2.20
2023-01-15T02:12:26.544Z,2.31
2023-01-15T02:15:03.416Z,1.96
2023-01-15T02:17:54.352Z,2.38
2023-01-15T02:20:29.514Z,2.65
2023-01-15T02:23:12.693Z,2.23
2023-01-15T02:26:18.503Z,1.90
2023-01-15T02:28:49.145Z,1.94
2023-01-15T02:31:23.699Z,2.11
2023-01-15T02:34:14.203Z,2.06
2023-01-15T02:36:47.664Z,2.00
2023-01-15T02:39:19.993Z,2.53
2023-01-15T02:41:52.016Z,2.70
2023-01-15T02:44:22.999Z,2.16
2023-01-15T02:46:54.184Z,2.38
2023-01-15T02:49:23.451Z,2.47
2023-01-15T02:52:05.402Z,2.32
2023-01-15T02:54:45.827Z,2.28
2023-01-15T02:57:15.643Z,2.43
2023-01-15T02:59:49.325Z,2.46
2023-01-15T03:02:21.690Z,2.49
2023-01-15T03:05:08.642Z,2.51
2023-01-15T03:07:47.539Z,2.37
2023-01-15T03:10:16.524Z,2.37
2023-01-15T03:13:02.526Z,2.27
2023-01-15T03:16:16.568Z,2.24
2023-01-15T03:19:20.435Z,2.23
2023-01-15T03:22:11.540Z,2.56
2023-01-15T03:24:52.593Z,2.43
2023-01-15T03:27:22.073Z,2.28
2023-01-15T03:29:58.906Z,2.29
2023-01-15T03:32:27.525Z,2.19
2023-01-15T03:34:56.487Z,2.31
2023-01-15T03:37:27.639Z,2.39
2023-01-15T03:39:57.452Z,2.16
2023-01-15T03:42:50.351Z,2.25
2023-01-15T03:45:32.046Z,2.14
2023-01-15T03:48:09.740Z,1.88
2023-01-15T03:50:38.276Z,2.34
2023-01-15T03:53:09.162Z,2.24
2023-01-15T03:55:55.385Z,2.53
2023-01-15T03:58:35.806Z,2.22
2023-01-15T04:01:11.416Z,2.28
2023-01-15T04:03:40.132Z,2.26
2023-01-15T04:06:10.279Z,2.52
2023-01-15T04:08:40.093Z,2.56
2023-01-15T04:11:09.342Z,2.73
2023-01-15T04:13:38.384Z,2.58
2023-01-15T04:16:07.082Z,2.39
2023-01-15T04:18:36.659Z,2.49
2023-01-15T04:21:05.571Z,2.67
2023-01-15T04:23:34.342Z,2.79
2023-01-15T04:26:02.831Z,2.77
2023-01-15T04:28:30.884Z,2.59
2023-01-15T04:31:00.015Z,2.15
2023-01-15T04:33:28.414Z,2.28
2023-01-15T04:36:00.463Z,2.14
2023-01-15T04:38:29.030Z,1.96
2023-01-15T04:41:20.103Z,2.09
2023-01-15T04:44:06.877Z,2.40
2023-01-15T04:46:42.691Z,2.59
2023-01-15T04:49:14.136Z,2.17
2023-01-15T04:51:42.455Z,2.28
2023-01-15T04:54:12.311Z,2.31
2023-01-15T04:56:48.121Z,2.41
2023-01-15T04:59:17.324Z,2.46
2023-01-15T05:02:01.818Z,2.39
2023-01-15T05:04:32.930Z,2.54
2023-01-15T05:07:03.131Z,2.42
2023-01-15T05:09:31.806Z,2.57
2023-01-15T05:11:59.731Z,2.33
2023-01-15T05:14:27.903Z,2.49
2023-01-15T05:16:56.216Z,2.51
2023-01-15T05:19:24.338Z,2.94
2023-01-15T05:21:53.557Z,2.38
2023-01-15T05:24:21.867Z,2.32
2023-01-15T05:26:49.823Z,2.56
2023-01-15T05:29:17.696Z,2.46
2023-01-15T05:31:46.546Z,2.42
2023-01-15T05:34:14.761Z,2.55
2023-01-15T05:36:42.913Z,2.34
2023-01-15T05:39:11.612Z,2.50
2023-01-15T05:41:49.328Z,2.04
2023-01-15T05:44:33.724Z,2.42
2023-01-15T05:47:07.947Z,2.06
2023-01-15T05:49:36.475Z,2.16
2023-01-15T05:52:04.600Z,2.34
2023-01-15T05:54:34.086Z,2.52
2023-01-15T05:57:02.944Z,2.53
2023-01-15T05:59:32.325Z,2.41
2023-01-15T06:02:00.680Z,2.32
2023-01-15T06:04:29.101Z,2.22
2023-01-15T06:06:58.021Z,2.30
2023-01-15T06:09:28.218Z,2.22
2023-01-15T06:11:56.973Z,2.27
2023-01-15T06:14:25.143Z,1.93
2023-01-15T06:16:53.146Z,2.56
2023-01-15T06:19:21.558Z,2.29
2023-01-15T06:21:49.663Z,2.38
2023-01-15T06:24:18.170Z,2.49
2023-01-15T06:26:46.594Z,2.53
2023-01-15T06:29:17.798Z,2.23
2023-01-15T06:31:45.946Z,2.61
2023-01-15T06:34:14.243Z,2.44
2023-01-15T06:36:42.113Z,2.49
2023-01-15T06:39:10.004Z,2.56
2023-01-15T06:41:57.213Z,2.57
2023-01-15T06:44:54.433Z,2.92
2023-01-15T06:47:23.601Z,2.62
2023-01-15T06:49:55.030Z,2.68
2023-01-15T06:52:28.193Z,2.96
2023-01-15T06:54:56.262Z,2.98
2023-01-15T06:57:24.751Z,2.64
2023-01-15T06:59:52.862Z,2.96
2023-01-15T07:02:22.038Z,2.53
2023-01-15T07:04:51.284Z,2.31
2023-01-15T07:07:20.889Z,2.75
2023-01-15T07:09:49.180Z,2.76
2023-01-15T07:12:17.763Z,2.43
2023-01-15T07:14:45.905Z,2.82
2023-01-15T07:17:14.355Z,2.91
2023-01-15T07:19:43.357Z,3.21
2023-01-15T07:22:11.610Z,2.88
2023-01-15T07:24:39.733Z,2.63
2023-01-15T07:27:08.207Z,3.10
2023-01-15T07:29:36.183Z,3.10
2023-01-15T07:32:04.493Z,2.77
2023-01-15T07:34:32.707Z,2.82
2023-01-15T07:37:00.695Z,3.26
2023-01-15T07:39:28.755Z,2.81
2023-01-15T07:42:15.343Z,2.54
2023-01-15T07:45:04.464Z,2.71
2023-01-15T07:47:51.382Z,2.75
2023-01-15T07:50:23.064Z,3.31
2023-01-15T07:52:53.313Z,3.59
2023-01-15T07:55:22.302Z,3.16
2023-01-15T07:57:50.555Z,3.53
2023-01-15T08:00:22.072Z,3.26
2023-01-15T08:02:51.129Z,3.32
2023-01-15T08:05:19.576Z,3.56
2023-01-15T08:07:47.687Z,3.17
2023-01-15T08:10:16.043Z,3.84
2023-01-15T08:13:02.617Z,3.77
2023-01-15T08:15:33.905Z,3.75
2023-01-15T08:18:01.748Z,3.44
2023-01-15T08:20:29.773Z,3.71
2023-01-15T08:22:58.103Z,3.63
2023-01-15T08:25:26.236Z,3.50
2023-01-15T08:27:54.806Z,3.78
2023-01-15T08:30:25.219Z,3.43
2023-01-15T08:32:53.296Z,3.57
2023-01-15T08:35:21.381Z,3.45
2023-01-15T08:37:49.675Z,3.44
2023-01-15T08:40:17.925Z,3.59
2023-01-15T08:42:45.851Z,3.68
2023-01-15T08:45:15.164Z,3.37
2023-01-15T08:47:43.062Z,3.18
2023-01-15T08:50:11.459Z,3.59
2023-01-15T08:52:39.932Z,3.42
2023-01-15T08:55:08.836Z,3.94
2023-01-15T08:57:38.766Z,4.13
2023-01-15T09:00:08.060Z,3.90
2023-01-15T09:02:36.009Z,4.14
2023-01-15T09:05:04.248Z,3.86
2023-01-15T09:07:32.690Z,3.78
2023-01-15T09:10:00.776Z,4.08
2023-01-15T09:12:29.572Z,4.01
2023-01-15T09:15:02.803Z,4.05
2023-01-15T09:17:32.788Z,4.12
2023-01-15T09:20:03.349Z,4.16
2023-01-15T09:22:31.554Z,4.28
2023-01-15T09:24:59.670Z,4.21
2023-01-15T09:30:21.038Z,4.21
2023-01-15T09:32:49.670Z,4.41
2023-01-15T09:35:17.759Z,4.76
2023-01-15T09:37:51.568Z,4.54
2023-01-15T09:40:47.618Z,4.60
2023-01-15T09:43:50.131Z,4.71
2023-01-15T09:46:23.838Z,4.64
2023-01-15T09:49:04.869Z,4.48
2023-01-15T09:51:54.619Z,4.83
2023-01-15T09:54:43.709Z,4.96
2023-01-15T09:57:16.561Z,5.50
2023-01-15T09:59:49.390Z,5.42
2023-01-15T10:02:23.280Z,5.53
2023-01-15T10:05:16.879Z,5.53
2023-01-15T10:07:57.129Z,5.70
2023-01-15T10:10:34.195Z,5.86
2023-01-15T10:13:19.409Z,5.84
2023-01-15T10:15:48.492Z,5.62
2023-01-15T10:18:21.747Z,6.08
2023-01-15T10:21:24.763Z,6.19
2023-01-15T10:24:15.883Z,6.13
2023-01-15T10:26:53.601Z,5.99
2023-01-15T10:29:46.925Z,5.88
2023-01-15T10:32:39.304Z,6.13
2023-01-15T10:35:28.961Z,6.08
2023-01-15T10:38:06.408Z,6.15
2023-01-15T10:40:57.992Z,5.92
2023-01-15T10:43:40.059Z,6.27
2023-01-15T10:46:19.776Z,6.22
2023-01-15T10:48:52.467Z,6.90
2023-01-15T10:51:50.640Z,6.19
2023-01-15T10:54:42.716Z,6.52
2023-01-15T10:57:23.090Z,6.61
2023-01-15T10:59:59.647Z,6.53
2023-01-15T11:02:35.581Z,6.99
2023-01-15T11:05:04.869Z,7.11
2023-01-15T11:08:39.461Z,7.42
2023-01-15T11:10:47.729Z,7.13
2023-01-15T11:13:42.678Z,7.49
2023-01-15T11:16:26.443Z,7.49
2023-01-15T11:19:12.829Z,7.22
2023-01-15T11:21:43.091Z,6.99
2023-01-15T11:24:16.640Z,7.27
2023-01-15T11:26:52.433Z,7.71
2023-01-15T11:29:38.528Z,7.31
2023-01-15T11:32:20.843Z,7.38
2023-01-15T11:34:57.163Z,7.37
2023-01-15T11:37:26.330Z,7.37
2023-01-15T11:40:06.816Z,8.03
2023-01-15T11:42:57.599Z,7.97
2023-01-15T11:45:45.980Z,7.57
2023-01-15T11:48:41.393Z,7.58
2023-01-15T11:51:16.489Z,7.09
2023-01-15T11:53:48.071Z,8.05
2023-01-15T11:56:24.720Z,8.14
2023-01-15T11:58:55.379Z,7.82
2023-01-15T12:01:32.350Z,8.73
2023-01-15T12:04:02.179Z,8.03
2023-01-15T12:06:30.938Z,8.11
2023-01-15T12:09:13.999Z,8.41
2023-01-15T12:11:48.076Z,8.22
2023-01-15T12:14:40.821Z,8.38
2023-01-15T12:17:37.581Z,8.31
2023-01-15T12:20:22.232Z,8.71
2023-01-15T12:22:56.480Z,8.23
2023-01-15T12:25:39.604Z,7.86
2023-01-15T12:28:35.161Z,8.14
2023-01-15T12:31:11.322Z,8.26
2023-01-15T12:33:55.219Z,8.41
2023-01-15T12:36:35.152Z,8.61
2023-01-15T12:39:30.767Z,8.70
2023-01-15T12:42:21.069Z,8.36
2023-01-15T12:45:04.748Z,8.28
2023-01-15T12:48:04.633Z,8.62
2023-01-15T12:50:39.569Z,8.14
2023-01-15T12:53:22.868Z,8.78
2023-01-15T12:56:02.465Z,8.71
2023-01-15T12:58:51.770Z,9.06
2023-01-15T13:01:56.698Z,8.39
2023-01-15T13:04:37.133Z,8.34
2023-01-15T13:07:17.950Z,8.06
2023-01-15T13:10:07.199Z,8.26
2023-01-15T13:12:36.215Z,8.53
2023-01-15T13:15:05.542Z,8.82
2023-01-15T13:18:14.867Z,8.42
2023-01-15T13:20:51.900Z,8.23
2023-01-15T13:23:31.985Z,7.96
2023-01-15T13:26:06.154Z,8.29
2023-01-15T13:28:50.850Z,7.77
2023-01-15T13:31:50.855Z,8.08
2023-01-15T13:34:33.789Z,8.61
2023-01-15T13:37:17.049Z,8.63
2023-01-15T13:39:45.842Z,8.60
2023-01-15T13:42:37.190Z,8.73
2023-01-15T13:45:27.001Z,8.52
2023-01-15T13:48:21.203Z,8.70
2023-01-15T13:50:53.781Z,8.37
2023-01-15T13:53:40.509Z,7.87
2023-01-15T13:56:12.828Z,7.86
2023-01-15T13:58:54.965Z,7.76
2023-01-15T14:01:25.933Z,7.72
2023-01-15T14:04:17.639Z,7.60
2023-01-15T14:06:50.699Z,7.40
2023-01-15T14:09:25.257Z,7.37
2023-01-15T14:12:14.280Z,7.30
2023-01-15T14:15:01.270Z,7.23
2023-01-15T14:17:48.116Z,7.48
2023-01-15T14:20:55.849Z,7.59
2023-01-15T14:23:53.852Z,7.34
2023-01-15T14:26:41.069Z,7.65
2023-01-15T14:29:29.490Z,7.75
2023-01-15T14:32:05.127Z,7.75
2023-01-15T14:34:35.002Z,7.57
2023-01-15T14:37:05.850Z,7.70
2023-01-15T14:39:55.841Z,7.77
2023-01-15T14:42:46.351Z,7.87
2023-01-15T14:45:14.293Z,7.47
2023-01-15T14:47:55.860Z,7.78
2023-01-15T14:50:44.063Z,7.91
2023-01-15T14:53:13.620Z,8.07
2023-01-15T14:55:56.322Z,8.15
2023-01-15T14:58:31.088Z,7.79
2023-01-15T15:01:04.038Z,7.82
2023-01-15T15:03:38.146Z,7.72
2023-01-15T15:06:07.316Z,7.39
2023-01-15T15:08:36.120Z,7.46
2023-01-15T15:11:25.335Z,7.96
2023-01-15T15:13:56.711Z,7.94
2023-01-15T15:16:29.181Z,8.18
2023-01-15T15:19:05.621Z,7.75
2023-01-15T15:21:40.115Z,7.90
2023-01-15T15:24:20.744Z,7.96
2023-01-15T15:26:48.922Z,7.56
2023-01-15T15:29:19.280Z,7.69
2023-01-15T15:31:49.691Z,7.87
2023-01-15T15:34:29.455Z,7.93
2023-01-15T15:37:01.262Z,7.92
2023-01-15T15:40:02.338Z,7.57
2023-01-15T15:42:56.734Z,7.91
2023-01-15T15:45:46.734Z,7.85
2023-01-15T15:48:38.110Z,7.60
2023-01-15T15:51:31.423Z,7.76
2023-01-15T15:54:16.411Z,8.37
2023-01-15T15:56:59.888Z,7.66
2023-01-15T15:59:36.171Z,7.77
2023-01-15T16:02:53.959Z,8.46
2023-01-15T16:05:25.395Z,8.20
2023-01-15T16:07:56.867Z,7.92
2023-01-15T16:10:29.189Z,8.25
2023-01-15T16:13:00.320Z,8.02
2023-01-15T16:15:34.620Z,7.99
2023-01-15T16:18:03.219Z,7.93
2023-01-15T16:20:32.834Z,8.04
2023-01-15T16:23:05.871Z,8.03
2023-01-15T16:25:42.118Z,8.16
2023-01-15T16:28:28.311Z,8.28
2023-01-15T16:31:02.893Z,8.26
2023-01-15T16:33:31.408Z,8.37
2023-01-15T16:36:04.767Z,8.49
2023-01-15T16:38:37.000Z,8.25
2023-01-15T16:41:05.587Z,8.51
2023-01-15T16:43:51.261Z,8.15
2023-01-15T16:46:20.866Z,8.63
2023-01-15T16:48:49.430Z,8.53
2023-01-15T16:51:30.732Z,7.97
2023-01-15T16:54:04.528Z,8.05
2023-01-15T16:56:36.368Z,8.14
2023-01-15T16:59:06.398Z,7.88
2023-01-15T17:01:35.283Z,7.88
2023-01-15T17:04:04.849Z,7.98
2023-01-15T17:06:33.738Z,7.49
2023-01-15T17:09:01.761Z,7.86
2023-01-15T17:11:31.028Z,7.97
2023-01-15T17:14:20.297Z,7.87
2023-01-15T17:16:48.670Z,8.14
2023-01-15T17:19:17.899Z,7.59
2023-01-15T17:21:47.690Z,8.32
2023-01-15T17:24:15.854Z,7.63
2023-01-15T17:26:44.241Z,7.55
2023-01-15T17:29:12.561Z,7.72
2023-01-15T17:31:40.571Z,7.59
2023-01-15T17:34:10.864Z,7.95
2023-01-15T17:36:38.843Z,7.15
2023-01-15T17:39:06.739Z,7.46
2023-01-15T17:41:35.106Z,7.21
2023-01-15T17:44:04.301Z,7.20
2023-01-15T17:46:32.660Z,7.53
2023-01-15T17:49:01.013Z,7.47
2023-01-15T17:51:30.523Z,7.35
2023-01-15T17:53:58.593Z,7.50
2023-01-15T17:56:45.745Z,7.68
2023-01-15T17:59:34.064Z,7.89
2023-01-15T18:02:21.172Z,7.70
2023-01-15T18:05:10.659Z,7.94
2023-01-15T18:07:41.424Z,7.73
2023-01-15T18:10:11.701Z,7.82
2023-01-15T18:12:39.773Z,8.18
2023-01-15T18:15:08.131Z,8.21
2023-01-15T18:17:36.687Z,7.74
2023-01-15T18:20:05.422Z,7.32
2023-01-15T18:22:33.366Z,7.84
2023-01-15T18:25:01.681Z,7.47
2023-01-15T18:27:30.527Z,7.60
2023-01-15T18:29:59.687Z,7.58
2023-01-15T18:32:30.455Z,7.98
2023-01-15T18:34:58.540Z,7.03
2023-01-15T18:37:26.545Z,7.79
2023-01-15T18:39:54.968Z,7.28
2023-01-15T18:42:41.404Z,7.38
2023-01-15T18:45:28.999Z,7.27
2023-01-15T18:47:56.756Z,7.32
2023-01-15T18:50:25.805Z,7.81
2023-01-15T18:52:53.759Z,7.74
2023-01-15T18:55:26.557Z,7.61
2023-01-15T18:57:55.709Z,7.47
2023-01-15T19:00:24.860Z,7.72
2023-01-15T19:02:52.943Z,7.31
2023-01-15T19:05:21.301Z,6.96
2023-01-15T19:07:49.347Z,6.73
2023-01-15T19:10:18.364Z,6.89
2023-01-15T19:12:46.906Z,6.95
2023-01-15T19:15:36.374Z,6.51
2023-01-15T19:18:24.106Z,7.54
2023-01-15T19:20:52.177Z,7.50
2023-01-15T19:23:21.180Z,6.88
2023-01-15T19:25:49.851Z,6.81
2023-01-15T19:28:20.291Z,7.06
2023-01-15T19:31:12.222Z,6.85
2023-01-15T19:33:40.291Z,6.87
2023-01-15T19:36:08.964Z,7.17
2023-01-15T19:38:42.662Z,7.43
2023-01-15T19:41:31.060Z,8.24
2023-01-15T19:44:17.633Z,7.77
2023-01-15T19:47:04.557Z,8.19
2023-01-15T19:49:54.222Z,8.10
2023-01-15T19:52:34.829Z,8.02
2023-01-15T19:55:04.577Z,7.21
2023-01-15T19:57:32.969Z,7.02
2023-01-15T20:00:01.111Z,7.05
2023-01-15T20:02:29.243Z,6.78
2023-01-15T20:04:57.665Z,6.72
2023-01-15T20:07:25.789Z,6.66
2023-01-15T20:09:53.860Z,6.74
2023-01-15T20:12:40.799Z,7.20
2023-01-15T20:15:09.746Z,7.32
2023-01-15T20:17:38.193Z,6.90
2023-01-15T20:20:07.091Z,7.43
2023-01-15T20:22:35.259Z,7.22
2023-01-15T20:25:04.015Z,6.67
2023-01-15T20:27:34.840Z,6.28
2023-01-15T20:30:10.302Z,6.33
2023-01-15T20:32:41.374Z,6.56
2023-01-15T20:35:12.839Z,6.31
2023-01-15T20:37:40.980Z,6.49
2023-01-15T20:40:09.994Z,6.43
2023-01-15T20:42:56.541Z,6.74
2023-01-15T20:45:25.377Z,6.71
2023-01-15T20:48:11.758Z,7.25
2023-01-15T20:51:01.125Z,6.80
2023-01-15T20:53:33.965Z,6.55
2023-01-15T20:56:03.362Z,7.03
2023-01-15T20:58:31.273Z,6.76
2023-01-15T21:01:09.312Z,7.04
2023-01-15T21:03:38.859Z,6.86
2023-01-15T21:06:08.265Z,6.87
2023-01-15T21:08:36.372Z,6.55
2023-01-15T21:11:05.000Z,6.96
2023-01-15T21:13:32.995Z,7.22
2023-01-15T21:16:05.442Z,7.38
2023-01-15T21:18:37.490Z,6.84
2023-01-15T21:21:13.730Z,7.29
2023-01-15T21:23:45.747Z,6.92
2023-01-15T21:26:14.819Z,7.10
2023-01-15T21:28:44.452Z,6.72
2023-01-15T21:31:13.745Z,6.61
2023-01-15T21:33:41.867Z,6.91
2023-01-15T21:36:12.911Z,6.28
2023-01-15T21:38:41.195Z,6.66
2023-01-15T21:41:14.330Z,6.97
2023-01-15T21:44:01.873Z,6.71
2023-01-15T21:46:30.273Z,6.70
2023-01-15T21:48:59.527Z,6.73
2023-01-15T21:51:27.723Z,5.77
2023-01-15T21:54:00.108Z,6.49
2023-01-15T21:56:28.895Z,5.69
2023-01-15T21:58:57.430Z,5.78
2023-01-15T22:01:26.223Z,5.91
2023-01-15T22:03:54.758Z,6.10
2023-01-15T22:06:22.610Z,5.99
2023-01-15T22:08:54.833Z,6.77
2023-01-15T22:11:23.957Z,6.04
2023-01-15T22:13:53.142Z,6.21
2023-01-15T22:16:21.111Z,6.02
2023-01-15T22:18:50.572Z,5.13
2023-01-15T22:21:18.636Z,5.26
2023-01-15T22:23:49.113Z,4.91
2023-01-15T22:26:19.189Z,5.29
2023-01-15T22:28:48.268Z,5.43
2023-01-15T22:31:18.062Z,5.08
2023-01-15T22:33:46.820Z,5.80
2023-01-15T22:36:15.869Z,6.52
2023-01-15T22:38:44.588Z,6.00
2023-01-15T22:41:13.080Z,6.05
2023-01-15T22:43:41.335Z,5.54
2023-01-15T22:46:14.801Z,6.14
2023-01-15T22:48:43.527Z,5.98
2023-01-15T22:51:11.569Z,6.42
2023-01-15T22:53:39.531Z,6.30
2023-01-15T22:56:07.931Z,5.97
2023-01-15T22:58:36.536Z,6.06
2023-01-15T23:01:05.697Z,5.66
2023-01-15T23:03:35.453Z,5.81
2023-01-15T23:06:09.959Z,5.35
2023-01-15T23:08:38.777Z,4.92
2023-01-15T23:11:15.739Z,5.82
2023-01-15T23:13:44.739Z,6.04
2023-01-15T23:16:12.904Z,6.03
2023-01-15T23:18:40.820Z,5.94
2023-01-15T23:21:11.629Z,6.28
2023-01-15T23:23:40.040Z,6.18
2023-01-15T23:26:11.731Z,5.75
2023-01-15T23:28:40.837Z,5.88
2023-01-15T23:31:10.986Z,5.76
2023-01-15T23:33:38.939Z,6.28
2023-01-15T23:36:09.788Z,6.45
2023-01-15T23:38:41.871Z,6.45
2023-01-15T23:41:14.308Z,6.69
2023-01-15T23:44:01.729Z,6.70
2023-01-15T23:46:32.968Z,6.61
2023-01-15T23:49:06.864Z,6.74
2023-01-15T23:51:36.077Z,7.06
2023-01-15T23:54:05.638Z,7.07
2023-01-15T23:56:33.986Z,7.11
2023-01-15T23:59:01.898Z,7.18
